Thunderstorms From: 15-12-2017 06:00 Until: 16-12-2017 06:00 warning for: Thunderstorms Level: Yellow info button

Although rather usual in this region, locally or potentially dangerous phenomena are expected. (such as local winds, summer thunderstorms, rising streams or high waves) Be aware and pay attention to the latest weather updates, especially if you carry out activities exposed to weather or close to a stream or shoreline. 


Meteo18 Weather Cam more information Meteo18 Weather Cam


warning for Thunderstorms more information blitzortung!


Rain radar more information rain snow radar


Visit our other weather sites:

Template documentation
and downloads

And another site



Weather Underground History page Text

Daily Summary for August 10, 2017 Units:  English    Metric   Both
« Previous Day
Next Day »
Daily Weekly Monthly Yearly Custom
  High: Low: Average:
Temperature: 64.6 °F 48.9 °F 55.6 °F
Dew Point: 54.9 °F 46.9 °F 51.6 °F
Humidity: 95 % 67 % 87 %
Wind Speed: 10 mph 0 mph 1.4 mph
Wind Gust: 11 mph - -
Wind:- - SW
Pressure: 30.2 in 30.1 in -
Precipitation: 0.06 in    
Historical Graphs
 
 
Tabular Data for August 10, 2017
Time Temperature Dew Point Pressure Wind Wind Speed Wind Gust Humidity Rainfall Rate (Hourly)
00:02 54.1 °F 48.7 °F 30.1 in SW 1 mph 3 mph 82 % 0 in
00:07 54 °F 48.9 °F 30.1 in Calm   3 mph 83 % 0 in
00:12 53.8 °F 49.1 °F 30.1 in WSW 2 mph 4 mph 84 % 0 in
00:17 53.4 °F 49.1 °F 30.1 in SW 4 mph 4 mph 85 % 0 in
00:22 53.4 °F 49.6 °F 30.1 in Calm   4 mph 87 % 0 in
00:27 53.2 °F 49.5 °F 30.1 in SW 3 mph 5 mph 87 % 0 in
00:32 53.1 °F 49.6 °F 30.1 in WSW 4 mph 5 mph 88 % 0 in
00:37 53.1 °F 49.6 °F 30.1 in West 2 mph 5 mph 88 % 0 in
00:42 52.7 °F 49.3 °F 30.1 in West 2 mph 5 mph 88 % 0 in
00:47 52.3 °F 49.3 °F 30.1 in SW 1 mph 4 mph 89 % 0 in
00:52 52.2 °F 49.1 °F 30.1 in SW 1 mph 3 mph 89 % 0 in
00:57 52 °F 48.9 °F 30.1 in Calm   3 mph 89 % 0 in
01:02 51.6 °F 48.7 °F 30.1 in Calm   3 mph 90 % 0 in
01:12 51.4 °F 48.6 °F 30.1 in Calm   2 mph 90 % 0 in
01:17 51.3 °F 48.4 °F 30.1 in Calm   1 mph 90 % 0 in
01:22 50.9 °F 48 °F 30.1 in Calm   1 mph 90 % 0 in
01:27 50.7 °F 48.2 °F 30.2 in Calm   1 mph 91 % 0 in
01:32 50.5 °F 48 °F 30.2 in Calm   1 mph 91 % 0 in
01:37 50.4 °F 48.2 °F 30.2 in Calm   1 mph 92 % 0 in
01:42 50 °F 47.8 °F 30.2 in Calm   1 mph 92 % 0 in
01:47 49.8 °F 47.7 °F 30.2 in Calm   1 mph 92 % 0 in
01:52 49.6 °F 47.7 °F 30.2 in SSW 1 mph 1 mph 93 % 0 in
01:57 49.8 °F 47.8 °F 30.2 in Calm   2 mph 93 % 0 in
02:02 50.2 °F 48.2 °F 30.2 in West 1 mph 2 mph 93 % 0 in
02:12 50.4 °F 48.2 °F 30.2 in Calm   2 mph 92 % 0 in
02:17 50.4 °F 48.2 °F 30.2 in Calm   2 mph 92 % 0 in
02:22 49.8 °F 47.7 °F 30.2 in ESE 1 mph 3 mph 92 % 0 in
02:32 49.3 °F 47.3 °F 30.2 in Calm   2 mph 93 % 0 in
02:37 49.1 °F 47.1 °F 30.2 in Calm   1 mph 93 % 0 in
02:42 48.9 °F 46.9 °F 30.2 in SSW 3 mph 3 mph 93 % 0 in
02:47 49.1 °F 47.5 °F 30.2 in Calm   3 mph 94 % 0 in
02:52 48.9 °F 47.3 °F 30.2 in Calm   3 mph 94 % 0 in
02:57 48.9 °F 47.3 °F 30.2 in Calm   3 mph 94 % 0 in
03:02 49.1 °F 47.5 °F 30.2 in Calm   2 mph 94 % 0 in
03:12 49.1 °F 47.5 °F 30.2 in Calm     94 % 0 in
03:17 49.3 °F 47.7 °F 30.2 in Calm     94 % 0 in
03:22 49.3 °F 47.7 °F 30.2 in Calm     94 % 0 in
03:27 49.3 °F 47.7 °F 30.2 in Calm     94 % 0 in
03:32 49.3 °F 47.7 °F 30.2 in Calm     94 % 0 in
03:37 49.5 °F 48 °F 30.2 in Calm     95 % 0 in
03:42 49.6 °F 48.2 °F 30.2 in Calm     95 % 0 in
03:47 49.6 °F 48.2 °F 30.2 in SW 2 mph 2 mph 95 % 0 in
03:52 49.8 °F 48.4 °F 30.2 in SW 2 mph 3 mph 95 % 0 in
03:57 50 °F 48.6 °F 30.2 in WSW 2 mph 3 mph 95 % 0 in
04:02 50.2 °F 48.7 °F 30.2 in Calm   3 mph 95 % 0 in
04:12 50.2 °F 48.7 °F 30.2 in Calm   3 mph 95 % 0 in
04:17 50.2 °F 48.6 °F 30.1 in Calm   1 mph 94 % 0 in
04:22 50.2 °F 48.6 °F 30.2 in Calm     94 % 0 in
04:27 50.4 °F 48.7 °F 30.2 in Calm     94 % 0 in
04:32 50.4 °F 48.7 °F 30.2 in Calm     94 % 0 in
04:37 50.4 °F 48.9 °F 30.1 in Calm     95 % 0 in
04:42 50.4 °F 48.7 °F 30.1 in Calm     94 % 0 in
04:47 50.4 °F 48.9 °F 30.1 in Calm   1 mph 95 % 0 in
04:52 50.4 °F 48.9 °F 30.1 in Calm   1 mph 95 % 0 in
04:57 50.4 °F 48.9 °F 30.1 in Calm   1 mph 95 % 0 in
05:02 50.2 °F 48.7 °F 30.1 in Calm   1 mph 95 % 0 in
05:17 50.2 °F 48.7 °F 30.1 in Calm     95 % 0 in
05:22 50.4 °F 48.9 °F 30.1 in Calm     95 % 0 in
05:27 50.4 °F 48.9 °F 30.1 in Calm     95 % 0 in
05:32 50.4 °F 48.9 °F 30.1 in Calm     95 % 0 in
05:37 50.4 °F 48.9 °F 30.1 in Calm     95 % 0 in
05:42 50.5 °F 49.1 °F 30.1 in SE 1 mph   95 % 0 in
05:47 50.5 °F 49.1 °F 30.1 in SSE 1 mph 2 mph 95 % 0 in
05:52 50.5 °F 49.1 °F 30.1 in Calm   2 mph 95 % 0 in
05:57 50.5 °F 49.1 °F 30.1 in SSW 1 mph 3 mph 95 % 0 in
06:02 50.5 °F 49.1 °F 30.1 in South 2 mph 3 mph 95 % 0 in
06:07 50.5 °F 49.1 °F 30.1 in SSW 3 mph 4 mph 95 % 0 in
06:12 50.5 °F 49.1 °F 30.1 in SSW 2 mph 4 mph 95 % 0 in
06:17 50.5 °F 49.1 °F 30.1 in WSW 1 mph 4 mph 95 % 0 in
06:22 50.5 °F 49.1 °F 30.1 in WSW 3 mph 4 mph 95 % 0 in
06:32 50.7 °F 49.3 °F 30.1 in SW 3 mph 4 mph 95 % 0 in
06:42 50.7 °F 49.1 °F 30.1 in SSW 1 mph 5 mph 94 % 0 in
06:52 50.9 °F 49.3 °F 30.1 in Calm   5 mph 94 % 0 in
07:02 50.9 °F 49.3 °F 30.1 in Calm   2 mph 94 % 0 in
07:12 50.9 °F 49.3 °F 30.1 in Calm     94 % 0 in
07:17 50.9 °F 49.3 °F 30.1 in Calm     94 % 0 in
07:22 50.9 °F 49.5 °F 30.1 in Calm     95 % 0 in
07:27 51.1 °F 49.6 °F 30.1 in Calm     95 % 0 in
07:32 51.1 °F 49.6 °F 30.1 in Calm     95 % 0 in
07:42 51.3 °F 49.8 °F 30.1 in SSW 1 mph 2 mph 95 % 0 in
07:47 51.4 °F 50 °F 30.1 in SSE 1 mph 3 mph 95 % 0 in
08:02 51.8 °F 50.2 °F 30.1 in South 2 mph 4 mph 94 % 0 in
08:12 52 °F 50.4 °F 30.2 in Calm   6 mph 94 % 0 in
08:17 52.2 °F 50.5 °F 30.2 in Calm   4 mph 94 % 0 in
08:22 52.2 °F 50.5 °F 30.2 in Calm   4 mph 94 % 0 in
08:27 52.2 °F 50.2 °F 30.2 in SSW 1 mph 3 mph 93 % 0 in
08:32 52.3 °F 50.7 °F 30.2 in Calm   3 mph 94 % 0 in
08:42 52.5 °F 50.5 °F 30.2 in SSE 1 mph 4 mph 93 % 0 in
08:47 52.9 °F 50.9 °F 30.2 in SSW 1 mph 4 mph 93 % 0 in
08:52 52.9 °F 50.9 °F 30.2 in SW 2 mph 4 mph 93 % 0 in
09:02 52.9 °F 50.5 °F 30.2 in SW 3 mph 4 mph 92 % 0 in
09:12 53.1 °F 50.7 °F 30.2 in SSW 4 mph 4 mph 92 % 0 in
09:17 53.2 °F 50.9 °F 30.2 in SW 5 mph 6 mph 92 % 0 in
09:22 53.4 °F 51.1 °F 30.2 in SW 5 mph 6 mph 92 % 0 in
09:27 53.6 °F 51.3 °F 30.2 in SE 3 mph 6 mph 92 % 0 in
09:32 54 °F 51.4 °F 30.2 in South 2 mph 6 mph 91 % 0 in
09:37 53.8 °F 51.3 °F 30.2 in SW 2 mph 6 mph 91 % 0 in
09:42 54 °F 51.4 °F 30.2 in SSW 1 mph 6 mph 91 % 0 in
09:47 54.1 °F 51.6 °F 30.2 in SW 5 mph 6 mph 91 % 0 in
09:52 54.1 °F 51.6 °F 30.2 in SW 2 mph 6 mph 91 % 0 in
09:57 54.7 °F 52.2 °F 30.2 in SW 5 mph 6 mph 91 % 0 in
10:02 54.7 °F 52.2 °F 30.2 in WSW 2 mph 6 mph 91 % 0 in
10:12 54.9 °F 52 °F 30.2 in SW 2 mph 6 mph 90 % 0 in
10:17 55 °F 52.2 °F 30.2 in SSW 1 mph 6 mph 90 % 0 in
10:22 55.4 °F 52.5 °F 30.2 in SSW 3 mph 6 mph 90 % 0 in
10:27 55.6 °F 52.7 °F 30.2 in South 4 mph 5 mph 90 % 0 in
10:32 55.9 °F 52.7 °F 30.2 in SW 5 mph 5 mph 89 % 0 in
10:37 55.9 °F 52.7 °F 30.2 in SW 3 mph 5 mph 89 % 0 in
10:42 56.1 °F 52.9 °F 30.2 in Calm   5 mph 89 % 0 in
10:47 56.3 °F 53.1 °F 30.2 in SW 1 mph 6 mph 89 % 0 in
10:52 56.1 °F 52.9 °F 30.2 in SW 2 mph 6 mph 89 % 0 in
10:57 56.3 °F 53.1 °F 30.2 in WSW 2 mph 4 mph 89 % 0 in
11:02 56.5 °F 53.6 °F 30.2 in South 1 mph 4 mph 90 % 0 in
11:07 56.7 °F 53.8 °F 30.2 in Calm   3 mph 90 % 0 in
11:12 56.8 °F 54 °F 30.2 in SW 4 mph 4 mph 90 % 0 in
11:17 57 °F 53.4 °F 30.2 in West 2 mph 5 mph 88 % 0 in
11:27 57.6 °F 54 °F 30.2 in Calm   5 mph 88 % 0 in
11:32 57.9 °F 54.1 °F 30.2 in SW 2 mph 5 mph 87 % 0 in
11:42 58.3 °F 54.1 °F 30.2 in WSW 4 mph 5 mph 86 % 0 in
11:52 57.9 °F 53.8 °F 30.2 in WSW 4 mph 5 mph 86 % 0 in
11:57 57.9 °F 54.1 °F 30.2 in WSW 2 mph 6 mph 87 % 0 in
12:02 57.7 °F 54 °F 30.2 in WSW 4 mph 6 mph 87 % 0 in
12:12 57.7 °F 53.6 °F 30.2 in WSW 2 mph 5 mph 86 % 0.01 in
12:17 58.3 °F 54.5 °F 30.2 in WSW 3 mph 7 mph 87 % 0.01 in
12:22 58.5 °F 53.6 °F 30.2 in WSW 5 mph 7 mph 84 % 0.01 in
12:27 58.5 °F 53.2 °F 30.2 in WSW 2 mph 5 mph 83 % 0.01 in
12:32 58.8 °F 54.3 °F 30.2 in WSW 5 mph 5 mph 85 % 0.01 in
12:37 58.8 °F 53.4 °F 30.2 in WSW 3 mph 5 mph 82 % 0.01 in
12:42 59 °F 54.1 °F 30.2 in SW 4 mph 5 mph 84 % 0.01 in
12:52 59.2 °F 54 °F 30.2 in WSW 3 mph 8 mph 83 % 0.01 in
12:57 59.5 °F 54.7 °F 30.2 in SW 1 mph 7 mph 84 % 0.01 in
13:02 59.7 °F 54.1 °F 30.2 in West 5 mph 7 mph 82 % 0 in
13:12 59.7 °F 53.6 °F 30.2 in West 3 mph 6 mph 80 % 0 in
13:17 59.7 °F 53.2 °F 30.2 in WSW 2 mph 6 mph 79 % 0 in
13:22 60.1 °F 54 °F 30.2 in West 4 mph 7 mph 80 % 0 in
13:32 59.5 °F 53.4 °F 30.2 in SW 8 mph 8 mph 80 % 0 in
13:37 59.4 °F 53.6 °F 30.2 in SW 10 mph 10 mph 81 % 0 in
13:42 59.2 °F 53.4 °F 30.2 in SW 4 mph 10 mph 81 % 0 in
13:47 59.4 °F 53.6 °F 30.2 in SW 6 mph 10 mph 81 % 0 in
13:57 59.2 °F 53.4 °F 30.2 in SW 2 mph 9 mph 81 % 0 in
14:02 59.4 °F 53.2 °F 30.2 in SW 3 mph 9 mph 80 % 0 in
14:12 59.4 °F 52.9 °F 30.2 in SSW 5 mph 6 mph 79 % 0 in
14:17 59.4 °F 53.6 °F 30.2 in SW 1 mph 6 mph 81 % 0 in
14:22 59.7 °F 53.6 °F 30.2 in WSW 1 mph 6 mph 80 % 0 in
14:27 60.1 °F 54.3 °F 30.2 in SSW 2 mph 6 mph 81 % 0 in
14:32 60.1 °F 54 °F 30.2 in WSW 4 mph 6 mph 80 % 0 in
14:37 60.3 °F 54.1 °F 30.2 in SW 2 mph 6 mph 80 % 0 in
14:42 60.3 °F 54.3 °F 30.2 in WSW 3 mph 6 mph 81 % 0 in
14:47 60.3 °F 54.1 °F 30.1 in SW 3 mph 6 mph 80 % 0 in
14:52 60.1 °F 54.3 °F 30.1 in Calm   6 mph 81 % 0 in
14:57 60.1 °F 54.3 °F 30.2 in SW 4 mph 6 mph 81 % 0 in
15:02 59.7 °F 54.5 °F 30.1 in SW 1 mph 8 mph 83 % 0 in
15:12 59.5 °F 54.7 °F 30.1 in WSW 1 mph 8 mph 84 % 0 in
15:17 59.7 °F 54.5 °F 30.1 in WSW 1 mph 6 mph 83 % 0 in
15:22 59.5 °F 54 °F 30.1 in WNW 3 mph 4 mph 82 % 0 in
15:27 59.4 °F 53.8 °F 30.1 in West 2 mph 6 mph 82 % 0 in
15:32 59.4 °F 53.2 °F 30.1 in WSW 2 mph 6 mph 80 % 0 in
15:37 59.7 °F 54 °F 30.1 in WSW 3 mph 6 mph 81 % 0 in
15:42 59.9 °F 53.8 °F 30.1 in West 3 mph 5 mph 80 % 0 in
15:47 60.1 °F 54 °F 30.1 in WNW 3 mph 5 mph 80 % 0 in
15:52 60.3 °F 54.1 °F 30.1 in WNW 3 mph 5 mph 80 % 0 in
15:57 60.4 °F 54.5 °F 30.1 in WNW 4 mph 4 mph 81 % 0 in
16:02 60.4 °F 53.6 °F 30.1 in WNW 1 mph 5 mph 78 % 0 in
16:12 60.3 °F 53.8 °F 30.1 in West 1 mph 5 mph 79 % 0 in
16:17 59.9 °F 54.7 °F 30.1 in SW 2 mph 4 mph 83 % 0.02 in
16:22 59.7 °F 54.9 °F 30.1 in WSW 2 mph 4 mph 84 % 0.02 in
16:27 59.5 °F 54.3 °F 30.1 in SW 1 mph 4 mph 83 % 0.02 in
16:32 59.7 °F 54.5 °F 30.1 in SSW 2 mph 4 mph 83 % 0.02 in
16:37 59.7 °F 54.9 °F 30.1 in SSW 2 mph 4 mph 84 % 0.02 in
16:42 59.7 °F 54.5 °F 30.1 in SW 1 mph 3 mph 83 % 0.02 in
16:47 59.7 °F 54.5 °F 30.1 in Calm   4 mph 83 % 0.02 in
16:52 59.7 °F 54.9 °F 30.1 in WSW 2 mph 5 mph 84 % 0.02 in
16:57 59.7 °F 54.5 °F 30.1 in Calm   5 mph 83 % 0.02 in
17:02 60.1 °F 54.5 °F 30.1 in WNW 1 mph 4 mph 82 % 0.02 in
17:07 60.3 °F 54.7 °F 30.1 in Calm   4 mph 82 % 0.02 in
17:12 60.4 °F 54.5 °F 30.1 in Calm   4 mph 81 % 0.01 in
17:17 60.6 °F 54.1 °F 30.1 in Calm   3 mph 79 % 0 in
17:22 60.8 °F 54 °F 30.1 in Calm   3 mph 78 % 0 in
17:27 61 °F 53.8 °F 30.1 in Calm   2 mph 77 % 0 in
17:32 61.2 °F 54.7 °F 30.1 in Calm   2 mph 79 % 0 in
17:37 61.2 °F 54.7 °F 30.1 in WSW 2 mph 2 mph 79 % 0 in
17:42 61.2 °F 54.9 °F 30.1 in WSW 1 mph 3 mph 80 % 0 in
17:47 61.2 °F 54.7 °F 30.1 in Calm   3 mph 79 % 0 in
17:52 61.3 °F 53.8 °F 30.1 in WNW 1 mph 5 mph 76 % 0 in
17:57 61.7 °F 53.8 °F 30.1 in NNW 2 mph 5 mph 75 % 0 in
18:02 61.9 °F 53.4 °F 30.1 in North 3 mph 5 mph 74 % 0 in
18:07 61.5 °F 53.2 °F 30.1 in WNW 2 mph 5 mph 74 % 0 in
18:12 61.5 °F 54 °F 30.1 in WNW 2 mph 3 mph 76 % 0 in
18:17 61.5 °F 54 °F 30.1 in NW 2 mph 4 mph 76 % 0 in
18:22 61.9 °F 53.8 °F 30.1 in WNW 2 mph 4 mph 75 % 0 in
18:32 62.8 °F 54 °F 30.1 in WNW 4 mph 5 mph 73 % 0 in
18:37 62.8 °F 52.9 °F 30.1 in West 3 mph 5 mph 70 % 0 in
18:42 63 °F 52.7 °F 30.1 in WNW 1 mph 6 mph 69 % 0 in
18:47 62.8 °F 51.6 °F 30.1 in WNW 1 mph 6 mph 67 % 0 in
18:52 63 °F 52.7 °F 30.1 in WNW 3 mph 6 mph 69 % 0 in
18:57 63.7 °F 53.8 °F 30.1 in NW 1 mph 4 mph 70 % 0 in
19:02 63.9 °F 52.7 °F 30.1 in Calm   4 mph 67 % 0 in
19:07 64.6 °F 53.4 °F 30.1 in Calm   4 mph 67 % 0 in
19:17 64.4 °F 53.2 °F 30.1 in NE 1 mph 3 mph 67 % 0 in
19:22 63.7 °F 52.9 °F 30.1 in North 3 mph 3 mph 68 % 0 in
19:27 63.1 °F 52 °F 30.1 in NNW 1 mph 4 mph 67 % 0 in
19:32 62.6 °F 54.1 °F 30.1 in North 5 mph 6 mph 74 % 0 in
19:37 61.7 °F 54.1 °F 30.1 in North 2 mph 6 mph 76 % 0 in
19:42 61.2 °F 53.6 °F 30.1 in NNE 1 mph 6 mph 76 % 0 in
19:47 60.8 °F 54 °F 30.1 in NNW 6 mph 6 mph 78 % 0 in
19:52 59.7 °F 50 °F 30.1 in NW 3 mph 11 mph 70 % 0 in
19:57 59.2 °F 52 °F 30.1 in West 3 mph 11 mph 77 % 0.01 in
20:02 58.5 °F 52.3 °F 30.1 in West 2 mph 11 mph 80 % 0.02 in
20:12 57.2 °F 51.1 °F 30.1 in Calm   6 mph 80 % 0.02 in
20:17 57 °F 51.6 °F 30.1 in Calm   5 mph 82 % 0.02 in
20:22 57 °F 52.2 °F 30.1 in WNW 2 mph 4 mph 84 % 0.02 in
20:27 57.2 °F 52.7 °F 30.1 in WNW 4 mph 4 mph 85 % 0.02 in
20:32 57.4 °F 52.9 °F 30.1 in WNW 4 mph 6 mph 85 % 0.02 in
20:37 57.6 °F 53.4 °F 30.1 in West 1 mph 7 mph 86 % 0.02 in
20:42 57.7 °F 53.6 °F 30.1 in Calm   7 mph 86 % 0.02 in
20:47 57.7 °F 53.6 °F 30.1 in WNW 1 mph 5 mph 86 % 0.02 in
20:52 57.4 °F 53.2 °F 30.1 in NW 1 mph 4 mph 86 % 0.02 in
20:57 57 °F 53.2 °F 30.2 in Calm   3 mph 87 % 0.01 in
21:02 56.7 °F 52.9 °F 30.2 in Calm   3 mph 87 % 0 in
21:07 56.5 °F 52.9 °F 30.2 in Calm   2 mph 88 % 0 in
21:12 56.3 °F 53.1 °F 30.2 in Calm   2 mph 89 % 0 in
21:17 56.1 °F 53.2 °F 30.2 in Calm   1 mph 90 % 0 in
21:22 55.8 °F 53.2 °F 30.2 in Calm   1 mph 91 % 0 in
21:27 55.8 °F 53.2 °F 30.2 in Calm   1 mph 91 % 0 in
21:32 55.6 °F 53.1 °F 30.2 in Calm   1 mph 91 % 0 in
21:42 55.4 °F 53.1 °F 30.2 in Calm     92 % 0 in
21:47 55 °F 52.7 °F 30.2 in Calm     92 % 0 in
21:52 54.9 °F 52.5 °F 30.2 in Calm     92 % 0 in
21:57 54.7 °F 52.3 °F 30.2 in Calm     92 % 0 in
22:02 54.7 °F 52.7 °F 30.2 in Calm     93 % 0 in
22:07 54.7 °F 52.7 °F 30.2 in Calm     93 % 0 in
22:12 54.5 °F 52.5 °F 30.2 in Calm     93 % 0 in
22:17 54.3 °F 52.3 °F 30.2 in Calm     93 % 0 in
22:22 54.3 °F 52.3 °F 30.2 in Calm     93 % 0 in
22:27 54.1 °F 52.5 °F 30.2 in Calm     94 % 0 in
22:32 54.3 °F 52.7 °F 30.2 in Calm     94 % 0.01 in
22:37 54.3 °F 52.7 °F 30.2 in Calm     94 % 0.01 in
22:42 54.3 °F 52.7 °F 30.2 in Calm     94 % 0.02 in
22:47 54.3 °F 52.7 °F 30.2 in Calm     94 % 0.02 in
22:52 54.5 °F 52.9 °F 30.2 in Calm   1 mph 94 % 0.02 in
22:57 54.5 °F 52.9 °F 30.2 in Calm   1 mph 94 % 0.02 in
23:02 54.3 °F 52.7 °F 30.2 in Calm   1 mph 94 % 0.02 in
23:12 54.3 °F 52.7 °F 30.2 in Calm   1 mph 94 % 0.02 in
23:17 54.1 °F 52.5 °F 30.2 in Calm   1 mph 94 % 0.02 in
23:22 54 °F 52.3 °F 30.2 in Calm   1 mph 94 % 0.02 in
23:32 54.1 °F 52.5 °F 30.2 in NW 2 mph 2 mph 94 % 0.01 in
23:42 54.7 °F 53.1 °F 30.2 in NW 3 mph 6 mph 94 % 0 in
23:47 54.7 °F 52.7 °F 30.2 in Calm   6 mph 93 % 0 in
23:52 54.7 °F 52.7 °F 30.2 in Calm   6 mph 93 % 0 in
23:57 54.5 °F 52.5 °F 30.2 in Calm   4 mph 93 % 0 in
Meteo18
Compliments of Weather Underground - 4 mb

Script developed by  Jim McMurry - jmcmurry@mwt.net Adapted for the template by  Wim van der Kuil - Leuven-Template.eu

You find our weather info also at:

European Weather Network

Weather Underground

Equipment we use:

Weather-station
Davis Vue

Weather-program
Meteohub

Weather-server
Raspberry PI 2 B+

Provider
1 and 1

Davis Vue

Meteohub

Raspberry PI 2 B+

1 and 1